Berkshire, Massachusetts
Current Conditions -  °F | °C
As of 10:54 PM on Saturday 25 Oct 2014 (Local Time) from KPSF Reporting Station
Broken Clouds Broken Clouds  
Wind Chill: 53°   Ceiling: 4500
Heat Index: 53°   Visibility: 10mi
Dew Point: 45°   Wind: 13mph
Humidity: 74%   Direction: 290°WNW
Pressure: 29.55"   Gusts: 23mph
Location:  42.51°N, 73.19°W
Report Text: KPSF 260254Z AUTO 29011G20KT 10SM FEW029 SCT036 BKN045 12/07 A2955 RMK AO2 SLP997 60000 T01170072 55000
Loading
Personal Weather Stations






























Interactive Weather Map
Tropical Storm Tracking
New forecast layout! Learn more

10-Day Weather Forecast

Advertisements
Track Severe Weather on mobile